sensor_id;sensor_type;location;lat;lon;timestamp;P1;durP1;ratioP1;P2;durP2;ratioP2
51216;SDS011;37283;49.760;8.648;2023-03-01T00:01:09;15.45;;;10.80;;
51216;SDS011;37283;49.760;8.648;2023-03-01T00:03:37;16.90;;;10.75;;
51216;SDS011;37283;49.760;8.648;2023-03-01T00:06:04;15.52;;;10.18;;
51216;SDS011;37283;49.760;8.648;2023-03-01T00:08:31;15.82;;;10.55;;
51216;SDS011;37283;49.760;8.648;2023-03-01T00:11:00;16.65;;;11.00;;
51216;SDS011;37283;49.760;8.648;2023-03-01T00:13:30;15.40;;;10.43;;
51216;SDS011;37283;49.760;8.648;2023-03-01T00:15:57;16.42;;;11.02;;
51216;SDS011;37283;49.760;8.648;2023-03-01T00:18:24;16.70;;;11.40;;
51216;SDS011;37283;49.760;8.648;2023-03-01T00:20:54;14.38;;;10.25;;
51216;SDS011;37283;49.760;8.648;2023-03-01T00:23:21;14.57;;;10.95;;
51216;SDS011;37283;49.760;8.648;2023-03-01T00:25:48;18.48;;;11.02;;
51216;SDS011;37283;49.760;8.648;2023-03-01T00:28:15;16.75;;;11.18;;
51216;SDS011;37283;49.760;8.648;2023-03-01T00:30:42;14.55;;;10.70;;
51216;SDS011;37283;49.760;8.648;2023-03-01T00:33:09;17.23;;;11.05;;
51216;SDS011;37283;49.760;8.648;2023-03-01T00:35:35;16.08;;;11.15;;
51216;SDS011;37283;49.760;8.648;2023-03-01T00:38:02;14.55;;;10.88;;
51216;SDS011;37283;49.760;8.648;2023-03-01T00:40:31;14.95;;;11.65;;
51216;SDS011;37283;49.760;8.648;2023-03-01T00:42:59;15.68;;;11.60;;
51216;SDS011;37283;49.760;8.648;2023-03-01T00:45:26;17.55;;;12.02;;
51216;SDS011;37283;49.760;8.648;2023-03-01T00:47:53;17.33;;;11.57;;
51216;SDS011;37283;49.760;8.648;2023-03-01T00:50:20;15.82;;;11.88;;
51216;SDS011;37283;49.760;8.648;2023-03-01T00:52:47;16.88;;;11.48;;
51216;SDS011;37283;49.760;8.648;2023-03-01T00:55:13;16.58;;;11.88;;
51216;SDS011;37283;49.760;8.648;2023-03-01T00:57:40;18.02;;;12.43;;
51216;SDS011;37283;49.760;8.648;2023-03-01T01:00:07;16.83;;;11.60;;
51216;SDS011;37283;49.760;8.648;2023-03-01T01:02:35;19.15;;;12.90;;
51216;SDS011;37283;49.760;8.648;2023-03-01T01:05:03;18.85;;;11.85;;
51216;SDS011;37283;49.760;8.648;2023-03-01T01:07:31;16.23;;;11.75;;
51216;SDS011;37283;49.760;8.648;2023-03-01T01:09:58;18.35;;;11.95;;
51216;SDS011;37283;49.760;8.648;2023-03-01T01:12:24;17.70;;;11.52;;
51216;SDS011;37283;49.760;8.648;2023-03-01T01:14:51;16.02;;;11.48;;
51216;SDS011;37283;49.760;8.648;2023-03-01T01:17:18;17.55;;;11.55;;
51216;SDS011;37283;49.760;8.648;2023-03-01T01:19:44;17.88;;;12.38;;
51216;SDS011;37283;49.760;8.648;2023-03-01T01:22:11;19.15;;;12.18;;
51216;SDS011;37283;49.760;8.648;2023-03-01T01:24:37;15.25;;;11.73;;
51216;SDS011;37283;49.760;8.648;2023-03-01T01:27:04;18.52;;;11.95;;
51216;SDS011;37283;49.760;8.648;2023-03-01T01:29:31;19.48;;;12.13;;
51216;SDS011;37283;49.760;8.648;2023-03-01T01:31:57;17.60;;;11.45;;
51216;SDS011;37283;49.760;8.648;2023-03-01T01:34:24;17.20;;;12.00;;
51216;SDS011;37283;49.760;8.648;2023-03-01T01:36:51;21.55;;;12.43;;
51216;SDS011;37283;49.760;8.648;2023-03-01T01:39:22;16.77;;;12.68;;
51216;SDS011;37283;49.760;8.648;2023-03-01T01:41:48;18.95;;;11.95;;
51216;SDS011;37283;49.760;8.648;2023-03-01T01:44:16;16.30;;;11.35;;
51216;SDS011;37283;49.760;8.648;2023-03-01T01:46:53;17.38;;;12.40;;
51216;SDS011;37283;49.760;8.648;2023-03-01T01:57:21;19.15;;;12.52;;
51216;SDS011;37283;49.760;8.648;2023-03-01T01:59:52;17.67;;;12.52;;
51216;SDS011;37283;49.760;8.648;2023-03-01T02:02:20;17.23;;;11.68;;
51216;SDS011;37283;49.760;8.648;2023-03-01T02:04:47;17.65;;;12.57;;
51216;SDS011;37283;49.760;8.648;2023-03-01T02:07:19;16.30;;;12.15;;
51216;SDS011;37283;49.760;8.648;2023-03-01T02:09:48;18.73;;;12.38;;
51216;SDS011;37283;49.760;8.648;2023-03-01T02:12:17;17.48;;;12.43;;
51216;SDS011;37283;49.760;8.648;2023-03-01T02:14:44;17.48;;;12.32;;
51216;SDS011;37283;49.760;8.648;2023-03-01T02:17:11;18.02;;;12.68;;
51216;SDS011;37283;49.760;8.648;2023-03-01T02:19:41;16.67;;;12.68;;
51216;SDS011;37283;49.760;8.648;2023-03-01T02:22:19;20.52;;;12.57;;
51216;SDS011;37283;49.760;8.648;2023-03-01T02:25:12;17.80;;;12.80;;
51216;SDS011;37283;49.760;8.648;2023-03-01T02:27:58;19.77;;;12.75;;
51216;SDS011;37283;49.760;8.648;2023-03-01T02:32:58;18.77;;;12.30;;
51216;SDS011;37283;49.760;8.648;2023-03-01T02:35:29;20.45;;;12.88;;
51216;SDS011;37283;49.760;8.648;2023-03-01T02:38:01;17.60;;;12.85;;
51216;SDS011;37283;49.760;8.648;2023-03-01T02:40:28;18.48;;;12.82;;
51216;SDS011;37283;49.760;8.648;2023-03-01T02:42:56;20.30;;;12.93;;
51216;SDS011;37283;49.760;8.648;2023-03-01T02:45:24;20.08;;;13.07;;
51216;SDS011;37283;49.760;8.648;2023-03-01T02:47:55;17.88;;;12.65;;
51216;SDS011;37283;49.760;8.648;2023-03-01T02:52:57;16.90;;;12.18;;
51216;SDS011;37283;49.760;8.648;2023-03-01T02:55:28;19.17;;;12.52;;
51216;SDS011;37283;49.760;8.648;2023-03-01T02:57:55;18.92;;;12.98;;
51216;SDS011;37283;49.760;8.648;2023-03-01T03:00:24;21.08;;;13.45;;
51216;SDS011;37283;49.760;8.648;2023-03-01T03:02:54;18.70;;;12.07;;
51216;SDS011;37283;49.760;8.648;2023-03-01T03:05:27;18.80;;;12.60;;
51216;SDS011;37283;49.760;8.648;2023-03-01T03:07:57;17.75;;;12.30;;
51216;SDS011;37283;49.760;8.648;2023-03-01T03:10:29;18.38;;;13.25;;
51216;SDS011;37283;49.760;8.648;2023-03-01T03:12:59;18.73;;;13.43;;
51216;SDS011;37283;49.760;8.648;2023-03-01T03:15:31;20.73;;;13.75;;
51216;SDS011;37283;49.760;8.648;2023-03-01T03:17:58;19.50;;;13.38;;
51216;SDS011;37283;49.760;8.648;2023-03-01T03:20:26;17.27;;;12.50;;
51216;SDS011;37283;49.760;8.648;2023-03-01T03:22:55;19.83;;;12.73;;
51216;SDS011;37283;49.760;8.648;2023-03-01T03:25:22;19.27;;;12.75;;
51216;SDS011;37283;49.760;8.648;2023-03-01T03:27:50;20.02;;;13.20;;
51216;SDS011;37283;49.760;8.648;2023-03-01T03:30:26;19.10;;;13.05;;
51216;SDS011;37283;49.760;8.648;2023-03-01T03:32:54;17.83;;;12.68;;
51216;SDS011;37283;49.760;8.648;2023-03-01T03:35:22;17.73;;;12.63;;
51216;SDS011;37283;49.760;8.648;2023-03-01T03:37:54;20.83;;;14.15;;
51216;SDS011;37283;49.760;8.648;2023-03-01T03:40:30;17.55;;;12.65;;
51216;SDS011;37283;49.760;8.648;2023-03-01T03:43:09;19.92;;;13.15;;
51216;SDS011;37283;49.760;8.648;2023-03-01T03:45:36;21.13;;;13.82;;
51216;SDS011;37283;49.760;8.648;2023-03-01T03:48:04;18.52;;;13.20;;
51216;SDS011;37283;49.760;8.648;2023-03-01T03:53:03;17.63;;;12.80;;
51216;SDS011;37283;49.760;8.648;2023-03-01T03:55:31;18.17;;;12.52;;
51216;SDS011;37283;49.760;8.648;2023-03-01T03:58:02;20.08;;;13.57;;
51216;SDS011;37283;49.760;8.648;2023-03-01T04:00:37;16.05;;;12.07;;
51216;SDS011;37283;49.760;8.648;2023-03-01T04:03:05;18.90;;;13.57;;
51216;SDS011;37283;49.760;8.648;2023-03-01T04:05:32;21.42;;;14.32;;
51216;SDS011;37283;49.760;8.648;2023-03-01T04:07:59;18.13;;;12.98;;
51216;SDS011;37283;49.760;8.648;2023-03-01T04:10:29;21.30;;;14.90;;
51216;SDS011;37283;49.760;8.648;2023-03-01T04:12:57;19.25;;;13.10;;
51216;SDS011;37283;49.760;8.648;2023-03-01T04:15:24;22.98;;;14.07;;
51216;SDS011;37283;49.760;8.648;2023-03-01T04:17:51;22.27;;;15.25;;
51216;SDS011;37283;49.760;8.648;2023-03-01T04:20:20;22.02;;;14.70;;
51216;SDS011;37283;49.760;8.648;2023-03-01T04:22:52;21.20;;;14.45;;
51216;SDS011;37283;49.760;8.648;2023-03-01T04:25:23;20.40;;;14.50;;
51216;SDS011;37283;49.760;8.648;2023-03-01T04:27:51;19.33;;;13.43;;
51216;SDS011;37283;49.760;8.648;2023-03-01T04:30:17;19.88;;;13.93;;
51216;SDS011;37283;49.760;8.648;2023-03-01T04:32:44;19.23;;;13.48;;
51216;SDS011;37283;49.760;8.648;2023-03-01T04:35:11;20.15;;;14.07;;
51216;SDS011;37283;49.760;8.648;2023-03-01T04:37:37;20.73;;;14.70;;
51216;SDS011;37283;49.760;8.648;2023-03-01T04:40:04;20.50;;;13.93;;
51216;SDS011;37283;49.760;8.648;2023-03-01T04:42:42;19.80;;;13.43;;
51216;SDS011;37283;49.760;8.648;2023-03-01T04:45:09;19.35;;;13.63;;
51216;SDS011;37283;49.760;8.648;2023-03-01T04:47:43;17.83;;;13.32;;
51216;SDS011;37283;49.760;8.648;2023-03-01T04:50:10;19.90;;;14.63;;
51216;SDS011;37283;49.760;8.648;2023-03-01T04:52:39;21.25;;;13.45;;
51216;SDS011;37283;49.760;8.648;2023-03-01T04:55:06;22.15;;;15.43;;
51216;SDS011;37283;49.760;8.648;2023-03-01T04:57:33;21.40;;;14.02;;
51216;SDS011;37283;49.760;8.648;2023-03-01T04:59:59;19.95;;;13.95;;
51216;SDS011;37283;49.760;8.648;2023-03-01T05:02:26;18.63;;;13.63;;
51216;SDS011;37283;49.760;8.648;2023-03-01T05:04:53;23.42;;;14.07;;
51216;SDS011;37283;49.760;8.648;2023-03-01T05:07:23;20.08;;;14.43;;
51216;SDS011;37283;49.760;8.648;2023-03-01T05:09:51;21.95;;;14.35;;
51216;SDS011;37283;49.760;8.648;2023-03-01T05:14:46;19.70;;;13.57;;
51216;SDS011;37283;49.760;8.648;2023-03-01T05:17:13;23.92;;;13.52;;
51216;SDS011;37283;49.760;8.648;2023-03-01T05:19:39;23.50;;;14.43;;
51216;SDS011;37283;49.760;8.648;2023-03-01T05:22:08;19.20;;;13.77;;
51216;SDS011;37283;49.760;8.648;2023-03-01T05:24:35;20.17;;;14.02;;
51216;SDS011;37283;49.760;8.648;2023-03-01T05:27:02;18.30;;;13.63;;
51216;SDS011;37283;49.760;8.648;2023-03-01T05:29:30;19.13;;;13.55;;
51216;SDS011;37283;49.760;8.648;2023-03-01T05:31:58;18.98;;;13.82;;
51216;SDS011;37283;49.760;8.648;2023-03-01T05:34:26;20.38;;;14.95;;
51216;SDS011;37283;49.760;8.648;2023-03-01T05:36:54;23.90;;;17.30;;
51216;SDS011;37283;49.760;8.648;2023-03-01T05:39:21;26.10;;;16.85;;
51216;SDS011;37283;49.760;8.648;2023-03-01T05:41:53;22.30;;;16.25;;
51216;SDS011;37283;49.760;8.648;2023-03-01T05:44:20;22.45;;;16.77;;
51216;SDS011;37283;49.760;8.648;2023-03-01T05:46:47;22.95;;;14.75;;
51216;SDS011;37283;49.760;8.648;2023-03-01T05:49:14;20.23;;;13.93;;
51216;SDS011;37283;49.760;8.648;2023-03-01T05:51:41;20.05;;;14.50;;
51216;SDS011;37283;49.760;8.648;2023-03-01T05:54:09;19.73;;;13.73;;
51216;SDS011;37283;49.760;8.648;2023-03-01T05:56:35;20.40;;;13.65;;
51216;SDS011;37283;49.760;8.648;2023-03-01T05:59:03;19.02;;;13.98;;
51216;SDS011;37283;49.760;8.648;2023-03-01T06:01:31;18.20;;;13.73;;
51216;SDS011;37283;49.760;8.648;2023-03-01T06:03:58;20.15;;;14.45;;
51216;SDS011;37283;49.760;8.648;2023-03-01T06:06:25;20.92;;;15.02;;
51216;SDS011;37283;49.760;8.648;2023-03-01T06:08:54;25.02;;;16.73;;
51216;SDS011;37283;49.760;8.648;2023-03-01T06:11:21;21.40;;;15.15;;
51216;SDS011;37283;49.760;8.648;2023-03-01T06:13:47;22.80;;;15.00;;
51216;SDS011;37283;49.760;8.648;2023-03-01T06:16:14;19.42;;;14.60;;
51216;SDS011;37283;49.760;8.648;2023-03-01T06:18:41;20.10;;;14.48;;
51216;SDS011;37283;49.760;8.648;2023-03-01T06:21:08;21.02;;;15.25;;
51216;SDS011;37283;49.760;8.648;2023-03-01T06:23:35;20.52;;;13.90;;
51216;SDS011;37283;49.760;8.648;2023-03-01T06:26:05;18.15;;;13.85;;
51216;SDS011;37283;49.760;8.648;2023-03-01T06:28:32;19.92;;;14.65;;
51216;SDS011;37283;49.760;8.648;2023-03-01T06:30:59;19.63;;;14.20;;
51216;SDS011;37283;49.760;8.648;2023-03-01T06:33:25;24.08;;;15.07;;
51216;SDS011;37283;49.760;8.648;2023-03-01T06:35:54;21.80;;;15.43;;
51216;SDS011;37283;49.760;8.648;2023-03-01T06:38:22;21.70;;;15.05;;
51216;SDS011;37283;49.760;8.648;2023-03-01T06:40:53;17.88;;;14.07;;
51216;SDS011;37283;49.760;8.648;2023-03-01T06:43:21;20.63;;;14.43;;
51216;SDS011;37283;49.760;8.648;2023-03-01T06:45:47;22.08;;;15.13;;
51216;SDS011;37283;49.760;8.648;2023-03-01T06:48:14;23.02;;;14.90;;
51216;SDS011;37283;49.760;8.648;2023-03-01T06:50:41;18.88;;;13.45;;
51216;SDS011;37283;49.760;8.648;2023-03-01T06:53:07;18.55;;;13.88;;
51216;SDS011;37283;49.760;8.648;2023-03-01T06:55:34;20.10;;;14.75;;
51216;SDS011;37283;49.760;8.648;2023-03-01T06:58:01;20.17;;;14.93;;
51216;SDS011;37283;49.760;8.648;2023-03-01T07:00:28;18.92;;;13.52;;
51216;SDS011;37283;49.760;8.648;2023-03-01T07:02:59;22.02;;;15.48;;
51216;SDS011;37283;49.760;8.648;2023-03-01T07:05:26;20.98;;;14.90;;
51216;SDS011;37283;49.760;8.648;2023-03-01T07:07:52;19.02;;;13.95;;
51216;SDS011;37283;49.760;8.648;2023-03-01T07:10:19;21.90;;;14.95;;
51216;SDS011;37283;49.760;8.648;2023-03-01T07:12:46;22.52;;;14.80;;
51216;SDS011;37283;49.760;8.648;2023-03-01T07:15:12;24.95;;;14.82;;
51216;SDS011;37283;49.760;8.648;2023-03-01T07:17:41;19.98;;;14.90;;
51216;SDS011;37283;49.760;8.648;2023-03-01T07:20:07;19.58;;;14.88;;
51216;SDS011;37283;49.760;8.648;2023-03-01T07:22:34;18.58;;;13.88;;
51216;SDS011;37283;49.760;8.648;2023-03-01T07:25:01;20.65;;;14.88;;
51216;SDS011;37283;49.760;8.648;2023-03-01T07:27:27;20.00;;;15.05;;
51216;SDS011;37283;49.760;8.648;2023-03-01T07:29:54;19.58;;;14.68;;
51216;SDS011;37283;49.760;8.648;2023-03-01T07:32:20;19.42;;;14.80;;
51216;SDS011;37283;49.760;8.648;2023-03-01T07:34:47;20.70;;;15.85;;
51216;SDS011;37283;49.760;8.648;2023-03-01T07:37:13;18.73;;;14.43;;
51216;SDS011;37283;49.760;8.648;2023-03-01T07:39:40;21.38;;;14.02;;
51216;SDS011;37283;49.760;8.648;2023-03-01T07:42:06;20.45;;;14.68;;
51216;SDS011;37283;49.760;8.648;2023-03-01T07:44:33;20.60;;;15.48;;
51216;SDS011;37283;49.760;8.648;2023-03-01T07:47:00;21.00;;;14.90;;
51216;SDS011;37283;49.760;8.648;2023-03-01T07:49:27;19.88;;;15.50;;
51216;SDS011;37283;49.760;8.648;2023-03-01T07:51:53;23.23;;;15.57;;
51216;SDS011;37283;49.760;8.648;2023-03-01T07:54:20;19.52;;;15.18;;
51216;SDS011;37283;49.760;8.648;2023-03-01T07:56:46;21.40;;;15.77;;
51216;SDS011;37283;49.760;8.648;2023-03-01T07:59:13;23.00;;;16.05;;
51216;SDS011;37283;49.760;8.648;2023-03-01T08:01:39;20.60;;;15.15;;
51216;SDS011;37283;49.760;8.648;2023-03-01T08:04:07;21.23;;;15.35;;
51216;SDS011;37283;49.760;8.648;2023-03-01T08:06:35;22.05;;;16.20;;
51216;SDS011;37283;49.760;8.648;2023-03-01T08:09:01;24.70;;;15.98;;
51216;SDS011;37283;49.760;8.648;2023-03-01T08:11:28;23.67;;;16.45;;
51216;SDS011;37283;49.760;8.648;2023-03-01T08:13:54;22.15;;;16.25;;
51216;SDS011;37283;49.760;8.648;2023-03-01T08:16:21;22.20;;;16.95;;
51216;SDS011;37283;49.760;8.648;2023-03-01T08:18:48;25.15;;;17.40;;
51216;SDS011;37283;49.760;8.648;2023-03-01T08:21:16;27.55;;;17.35;;
51216;SDS011;37283;49.760;8.648;2023-03-01T08:23:43;23.80;;;16.80;;
51216;SDS011;37283;49.760;8.648;2023-03-01T08:26:11;24.55;;;17.20;;
51216;SDS011;37283;49.760;8.648;2023-03-01T08:28:43;25.77;;;18.58;;
51216;SDS011;37283;49.760;8.648;2023-03-01T08:31:13;26.63;;;18.67;;
51216;SDS011;37283;49.760;8.648;2023-03-01T08:33:41;28.38;;;19.27;;
51216;SDS011;37283;49.760;8.648;2023-03-01T08:36:07;28.88;;;20.52;;
51216;SDS011;37283;49.760;8.648;2023-03-01T08:38:34;31.65;;;18.38;;
51216;SDS011;37283;49.760;8.648;2023-03-01T08:41:02;27.20;;;18.58;;
51216;SDS011;37283;49.760;8.648;2023-03-01T08:43:29;24.20;;;17.00;;
51216;SDS011;37283;49.760;8.648;2023-03-01T08:45:55;22.23;;;15.73;;
51216;SDS011;37283;49.760;8.648;2023-03-01T08:48:22;24.05;;;18.60;;
51216;SDS011;37283;49.760;8.648;2023-03-01T08:50:49;32.90;;;21.10;;
51216;SDS011;37283;49.760;8.648;2023-03-01T08:53:18;46.13;;;24.35;;
51216;SDS011;37283;49.760;8.648;2023-03-01T08:55:44;29.40;;;18.77;;
51216;SDS011;37283;49.760;8.648;2023-03-01T08:58:11;28.48;;;18.65;;
51216;SDS011;37283;49.760;8.648;2023-03-01T09:00:37;65.03;;;34.25;;
51216;SDS011;37283;49.760;8.648;2023-03-01T09:03:04;25.38;;;16.23;;
51216;SDS011;37283;49.760;8.648;2023-03-01T09:05:34;21.00;;;15.80;;
51216;SDS011;37283;49.760;8.648;2023-03-01T09:08:00;24.92;;;16.77;;
51216;SDS011;37283;49.760;8.648;2023-03-01T09:10:27;23.85;;;17.17;;
51216;SDS011;37283;49.760;8.648;2023-03-01T09:12:53;24.38;;;16.60;;
51216;SDS011;37283;49.760;8.648;2023-03-01T09:15:20;25.00;;;17.10;;
51216;SDS011;37283;49.760;8.648;2023-03-01T09:17:46;25.13;;;16.25;;
51216;SDS011;37283;49.760;8.648;2023-03-01T09:20:12;20.23;;;15.27;;
51216;SDS011;37283;49.760;8.648;2023-03-01T09:22:39;24.50;;;16.80;;
51216;SDS011;37283;49.760;8.648;2023-03-01T09:25:06;24.65;;;16.42;;
51216;SDS011;37283;49.760;8.648;2023-03-01T09:27:32;22.48;;;15.98;;
51216;SDS011;37283;49.760;8.648;2023-03-01T09:29:59;20.10;;;14.80;;
51216;SDS011;37283;49.760;8.648;2023-03-01T09:32:25;22.33;;;15.90;;
51216;SDS011;37283;49.760;8.648;2023-03-01T09:34:52;20.70;;;14.70;;
51216;SDS011;37283;49.760;8.648;2023-03-01T09:37:30;21.80;;;16.05;;
51216;SDS011;37283;49.760;8.648;2023-03-01T09:39:59;25.23;;;16.73;;
51216;SDS011;37283;49.760;8.648;2023-03-01T09:42:27;24.00;;;16.27;;
51216;SDS011;37283;49.760;8.648;2023-03-01T09:45:04;22.80;;;16.27;;
51216;SDS011;37283;49.760;8.648;2023-03-01T09:47:35;22.77;;;16.95;;
51216;SDS011;37283;49.760;8.648;2023-03-01T09:50:18;22.70;;;16.75;;
51216;SDS011;37283;49.760;8.648;2023-03-01T09:55:15;23.55;;;15.63;;
51216;SDS011;37283;49.760;8.648;2023-03-01T09:57:49;26.00;;;17.08;;
51216;SDS011;37283;49.760;8.648;2023-03-01T10:03:16;22.88;;;17.20;;
51216;SDS011;37283;49.760;8.648;2023-03-01T10:05:50;24.75;;;16.50;;
51216;SDS011;37283;49.760;8.648;2023-03-01T10:08:34;22.90;;;16.50;;
51216;SDS011;37283;49.760;8.648;2023-03-01T10:11:05;22.83;;;16.92;;
51216;SDS011;37283;49.760;8.648;2023-03-01T10:13:57;25.08;;;17.02;;
51216;SDS011;37283;49.760;8.648;2023-03-01T10:16:48;23.23;;;16.63;;
51216;SDS011;37283;49.760;8.648;2023-03-01T10:24:47;23.38;;;17.23;;
51216;SDS011;37283;49.760;8.648;2023-03-01T10:29:54;24.08;;;16.40;;
51216;SDS011;37283;49.760;8.648;2023-03-01T10:32:24;22.58;;;16.83;;
51216;SDS011;37283;49.760;8.648;2023-03-01T10:34:51;24.95;;;17.30;;
51216;SDS011;37283;49.760;8.648;2023-03-01T10:37:18;22.20;;;16.42;;
51216;SDS011;37283;49.760;8.648;2023-03-01T10:39:54;24.17;;;17.67;;
51216;SDS011;37283;49.760;8.648;2023-03-01T10:42:38;22.60;;;15.57;;
51216;SDS011;37283;49.760;8.648;2023-03-01T10:48:21;24.40;;;17.27;;
51216;SDS011;37283;49.760;8.648;2023-03-01T10:55:59;21.77;;;16.13;;
51216;SDS011;37283;49.760;8.648;2023-03-01T10:58:31;21.60;;;16.05;;
51216;SDS011;37283;49.760;8.648;2023-03-01T11:00:59;22.05;;;16.13;;
51216;SDS011;37283;49.760;8.648;2023-03-01T11:03:34;21.95;;;15.82;;
51216;SDS011;37283;49.760;8.648;2023-03-01T11:06:23;21.90;;;15.75;;
51216;SDS011;37283;49.760;8.648;2023-03-01T11:08:49;22.45;;;15.25;;
51216;SDS011;37283;49.760;8.648;2023-03-01T11:11:29;21.23;;;15.75;;
51216;SDS011;37283;49.760;8.648;2023-03-01T11:16:58;21.00;;;16.05;;
51216;SDS011;37283;49.760;8.648;2023-03-01T11:19:28;24.40;;;17.05;;
51216;SDS011;37283;49.760;8.648;2023-03-01T11:22:07;22.45;;;16.15;;
51216;SDS011;37283;49.760;8.648;2023-03-01T11:24:40;20.23;;;15.07;;
51216;SDS011;37283;49.760;8.648;2023-03-01T11:27:14;21.98;;;15.38;;
51216;SDS011;37283;49.760;8.648;2023-03-01T11:29:45;21.15;;;14.77;;
51216;SDS011;37283;49.760;8.648;2023-03-01T11:32:17;21.00;;;15.77;;
51216;SDS011;37283;49.760;8.648;2023-03-01T11:34:50;21.58;;;15.55;;
51216;SDS011;37283;49.760;8.648;2023-03-01T11:37:23;19.40;;;14.85;;
51216;SDS011;37283;49.760;8.648;2023-03-01T11:40:23;20.00;;;14.68;;
51216;SDS011;37283;49.760;8.648;2023-03-01T11:43:01;21.35;;;15.27;;
51216;SDS011;37283;49.760;8.648;2023-03-01T11:45:32;21.35;;;15.00;;
51216;SDS011;37283;49.760;8.648;2023-03-01T11:51:22;20.67;;;14.68;;
51216;SDS011;37283;49.760;8.648;2023-03-01T11:53:57;18.80;;;14.57;;
51216;SDS011;37283;49.760;8.648;2023-03-01T11:56:35;19.80;;;14.65;;
51216;SDS011;37283;49.760;8.648;2023-03-01T11:59:24;21.23;;;15.35;;
51216;SDS011;37283;49.760;8.648;2023-03-01T12:02:27;22.60;;;15.90;;
51216;SDS011;37283;49.760;8.648;2023-03-01T12:08:10;17.70;;;13.73;;
51216;SDS011;37283;49.760;8.648;2023-03-01T12:16:20;19.88;;;13.52;;
51216;SDS011;37283;49.760;8.648;2023-03-01T12:19:10;18.15;;;12.70;;
51216;SDS011;37283;49.760;8.648;2023-03-01T12:21:56;16.10;;;13.20;;
51216;SDS011;37283;49.760;8.648;2023-03-01T12:30:05;18.58;;;13.15;;
51216;SDS011;37283;49.760;8.648;2023-03-01T12:32:57;17.25;;;13.43;;
51216;SDS011;37283;49.760;8.648;2023-03-01T12:41:03;17.13;;;12.35;;
51216;SDS011;37283;49.760;8.648;2023-03-01T12:51:37;19.85;;;11.18;;
51216;SDS011;37283;49.760;8.648;2023-03-01T12:54:50;17.08;;;11.65;;
51216;SDS011;37283;49.760;8.648;2023-03-01T12:56:53;15.65;;;11.75;;
51216;SDS011;37283;49.760;8.648;2023-03-01T12:59:23;13.90;;;10.95;;
51216;SDS011;37283;49.760;8.648;2023-03-01T13:04:59;17.08;;;11.60;;
51216;SDS011;37283;49.760;8.648;2023-03-01T13:07:44;15.25;;;10.93;;
51216;SDS011;37283;49.760;8.648;2023-03-01T13:13:19;17.40;;;10.23;;
51216;SDS011;37283;49.760;8.648;2023-03-01T13:15:50;17.55;;;10.73;;
51216;SDS011;37283;49.760;8.648;2023-03-01T13:20:49;14.75;;;10.38;;
51216;SDS011;37283;49.760;8.648;2023-03-01T13:31:10;14.48;;;10.10;;
51216;SDS011;37283;49.760;8.648;2023-03-01T13:39:03;12.65;;;9.60;;
51216;SDS011;37283;49.760;8.648;2023-03-01T13:44:12;13.93;;;9.50;;
51216;SDS011;37283;49.760;8.648;2023-03-01T13:46:43;14.02;;;8.40;;
51216;SDS011;37283;49.760;8.648;2023-03-01T13:49:18;14.10;;;8.82;;
51216;SDS011;37283;49.760;8.648;2023-03-01T13:51:47;13.48;;;8.52;;
51216;SDS011;37283;49.760;8.648;2023-03-01T13:54:14;13.27;;;9.07;;
51216;SDS011;37283;49.760;8.648;2023-03-01T13:56:43;15.48;;;8.95;;
51216;SDS011;37283;49.760;8.648;2023-03-01T14:01:41;14.05;;;9.27;;
51216;SDS011;37283;49.760;8.648;2023-03-01T14:04:23;13.15;;;8.30;;
51216;SDS011;37283;49.760;8.648;2023-03-01T14:06:51;12.20;;;8.63;;
51216;SDS011;37283;49.760;8.648;2023-03-01T14:09:20;13.15;;;8.50;;
51216;SDS011;37283;49.760;8.648;2023-03-01T14:14:45;11.13;;;8.60;;
51216;SDS011;37283;49.760;8.648;2023-03-01T14:20:25;11.43;;;7.78;;
51216;SDS011;37283;49.760;8.648;2023-03-01T14:22:53;11.13;;;8.43;;
51216;SDS011;37283;49.760;8.648;2023-03-01T14:25:23;12.18;;;8.15;;
51216;SDS011;37283;49.760;8.648;2023-03-01T14:27:55;11.15;;;7.53;;
51216;SDS011;37283;49.760;8.648;2023-03-01T14:30:44;12.88;;;8.35;;
51216;SDS011;37283;49.760;8.648;2023-03-01T14:33:25;11.82;;;8.20;;
51216;SDS011;37283;49.760;8.648;2023-03-01T14:36:09;13.40;;;8.60;;
51216;SDS011;37283;49.760;8.648;2023-03-01T14:38:40;12.00;;;7.78;;
51216;SDS011;37283;49.760;8.648;2023-03-01T14:41:18;12.43;;;8.27;;
51216;SDS011;37283;49.760;8.648;2023-03-01T14:43:51;9.77;;;7.68;;
51216;SDS011;37283;49.760;8.648;2023-03-01T14:46:32;10.75;;;7.32;;
51216;SDS011;37283;49.760;8.648;2023-03-01T14:49:05;12.82;;;7.70;;
51216;SDS011;37283;49.760;8.648;2023-03-01T14:51:38;9.63;;;7.22;;
51216;SDS011;37283;49.760;8.648;2023-03-01T14:54:15;11.50;;;7.30;;
51216;SDS011;37283;49.760;8.648;2023-03-01T14:56:47;17.95;;;7.78;;
51216;SDS011;37283;49.760;8.648;2023-03-01T14:59:14;10.48;;;7.82;;
51216;SDS011;37283;49.760;8.648;2023-03-01T15:01:41;11.60;;;7.00;;
51216;SDS011;37283;49.760;8.648;2023-03-01T15:04:10;12.55;;;7.60;;
51216;SDS011;37283;49.760;8.648;2023-03-01T15:06:38;11.65;;;7.38;;
51216;SDS011;37283;49.760;8.648;2023-03-01T15:09:05;10.57;;;7.05;;
51216;SDS011;37283;49.760;8.648;2023-03-01T15:11:33;11.70;;;7.80;;
51216;SDS011;37283;49.760;8.648;2023-03-01T15:13:59;11.20;;;7.88;;
51216;SDS011;37283;49.760;8.648;2023-03-01T15:16:27;11.85;;;7.32;;
51216;SDS011;37283;49.760;8.648;2023-03-01T15:18:55;10.65;;;7.13;;
51216;SDS011;37283;49.760;8.648;2023-03-01T15:21:24;12.30;;;8.27;;
51216;SDS011;37283;49.760;8.648;2023-03-01T15:23:54;12.43;;;8.50;;
51216;SDS011;37283;49.760;8.648;2023-03-01T15:28:51;11.70;;;9.00;;
51216;SDS011;37283;49.760;8.648;2023-03-01T15:31:23;13.48;;;9.02;;
51216;SDS011;37283;49.760;8.648;2023-03-01T15:33:51;14.90;;;9.45;;
51216;SDS011;37283;49.760;8.648;2023-03-01T15:39:00;12.88;;;9.35;;
51216;SDS011;37283;49.760;8.648;2023-03-01T15:41:28;12.07;;;8.90;;
51216;SDS011;37283;49.760;8.648;2023-03-01T15:43:59;14.20;;;8.75;;
51216;SDS011;37283;49.760;8.648;2023-03-01T15:46:33;13.02;;;9.38;;
51216;SDS011;37283;49.760;8.648;2023-03-01T15:49:02;12.70;;;9.85;;
51216;SDS011;37283;49.760;8.648;2023-03-01T15:51:33;15.70;;;10.00;;
51216;SDS011;37283;49.760;8.648;2023-03-01T15:54:04;12.93;;;9.35;;
51216;SDS011;37283;49.760;8.648;2023-03-01T15:56:43;14.02;;;9.82;;
51216;SDS011;37283;49.760;8.648;2023-03-01T15:59:11;13.55;;;9.93;;
51216;SDS011;37283;49.760;8.648;2023-03-01T16:01:40;13.00;;;9.38;;
51216;SDS011;37283;49.760;8.648;2023-03-01T16:04:09;13.02;;;9.75;;
51216;SDS011;37283;49.760;8.648;2023-03-01T16:06:38;12.70;;;9.27;;
51216;SDS011;37283;49.760;8.648;2023-03-01T16:09:05;14.13;;;9.73;;
51216;SDS011;37283;49.760;8.648;2023-03-01T16:11:31;14.85;;;10.73;;
51216;SDS011;37283;49.760;8.648;2023-03-01T16:14:00;13.00;;;9.25;;
51216;SDS011;37283;49.760;8.648;2023-03-01T16:16:26;15.57;;;10.52;;
51216;SDS011;37283;49.760;8.648;2023-03-01T16:18:53;12.55;;;9.32;;
51216;SDS011;37283;49.760;8.648;2023-03-01T16:21:22;14.50;;;10.25;;
51216;SDS011;37283;49.760;8.648;2023-03-01T16:23:51;17.85;;;10.68;;
51216;SDS011;37283;49.760;8.648;2023-03-01T16:26:18;12.15;;;9.45;;
51216;SDS011;37283;49.760;8.648;2023-03-01T16:28:46;18.77;;;9.25;;
51216;SDS011;37283;49.760;8.648;2023-03-01T16:31:16;15.80;;;10.80;;